sensor_id;sensor_type;location;lat;lon;timestamp;P1;durP1;ratioP1;P2;durP2;ratioP2
6547;SDS011;3307;52.416;16.862;2023-04-07T00:02:22;7.28;;;5.85;;
6547;SDS011;3307;52.416;16.862;2023-04-07T00:04:48;6.97;;;5.93;;
6547;SDS011;3307;52.416;16.862;2023-04-07T00:07:13;7.83;;;6.00;;
6547;SDS011;3307;52.416;16.862;2023-04-07T00:09:38;7.10;;;5.73;;
6547;SDS011;3307;52.416;16.862;2023-04-07T00:12:04;6.57;;;5.63;;
6547;SDS011;3307;52.416;16.862;2023-04-07T00:14:29;7.67;;;6.20;;
6547;SDS011;3307;52.416;16.862;2023-04-07T00:16:55;6.73;;;5.87;;
6547;SDS011;3307;52.416;16.862;2023-04-07T00:19:20;9.50;;;6.90;;
6547;SDS011;3307;52.416;16.862;2023-04-07T00:21:46;7.17;;;6.30;;
6547;SDS011;3307;52.416;16.862;2023-04-07T00:24:11;10.20;;;7.00;;
6547;SDS011;3307;52.416;16.862;2023-04-07T00:26:37;7.10;;;6.40;;
6547;SDS011;3307;52.416;16.862;2023-04-07T00:29:02;9.07;;;6.80;;
6547;SDS011;3307;52.416;16.862;2023-04-07T00:31:28;8.03;;;6.23;;
6547;SDS011;3307;52.416;16.862;2023-04-07T00:33:53;8.13;;;6.73;;
6547;SDS011;3307;52.416;16.862;2023-04-07T00:36:19;9.02;;;7.03;;
6547;SDS011;3307;52.416;16.862;2023-04-07T00:38:45;8.50;;;5.87;;
6547;SDS011;3307;52.416;16.862;2023-04-07T00:41:10;8.43;;;6.53;;
6547;SDS011;3307;52.416;16.862;2023-04-07T00:43:36;10.23;;;6.60;;
6547;SDS011;3307;52.416;16.862;2023-04-07T00:46:01;7.37;;;6.60;;
6547;SDS011;3307;52.416;16.862;2023-04-07T00:48:26;7.70;;;6.87;;
6547;SDS011;3307;52.416;16.862;2023-04-07T00:50:52;7.87;;;6.00;;
6547;SDS011;3307;52.416;16.862;2023-04-07T00:53:18;7.83;;;6.20;;
6547;SDS011;3307;52.416;16.862;2023-04-07T00:55:44;7.25;;;6.55;;
6547;SDS011;3307;52.416;16.862;2023-04-07T00:58:09;10.03;;;7.30;;
6547;SDS011;3307;52.416;16.862;2023-04-07T01:00:37;7.33;;;6.37;;
6547;SDS011;3307;52.416;16.862;2023-04-07T01:03:17;6.80;;;6.10;;
6547;SDS011;3307;52.416;16.862;2023-04-07T01:05:45;7.93;;;6.30;;
6547;SDS011;3307;52.416;16.862;2023-04-07T01:08:20;8.43;;;6.45;;
6547;SDS011;3307;52.416;16.862;2023-04-07T01:11:38;6.80;;;5.82;;
6547;SDS011;3307;52.416;16.862;2023-04-07T01:13:47;7.20;;;6.45;;
6547;SDS011;3307;52.416;16.862;2023-04-07T01:16:28;8.13;;;6.55;;
6547;SDS011;3307;52.416;16.862;2023-04-07T01:18:56;8.18;;;6.63;;
6547;SDS011;3307;52.416;16.862;2023-04-07T01:21:25;8.00;;;7.25;;
6547;SDS011;3307;52.416;16.862;2023-04-07T01:26:42;8.85;;;6.78;;
6547;SDS011;3307;52.416;16.862;2023-04-07T01:32:01;8.63;;;7.20;;
6547;SDS011;3307;52.416;16.862;2023-04-07T01:34:28;8.10;;;6.68;;
6547;SDS011;3307;52.416;16.862;2023-04-07T01:36:55;10.68;;;8.30;;
6547;SDS011;3307;52.416;16.862;2023-04-07T01:39:22;8.27;;;7.32;;
6547;SDS011;3307;52.416;16.862;2023-04-07T01:41:48;8.17;;;7.10;;
6547;SDS011;3307;52.416;16.862;2023-04-07T01:44:15;11.02;;;7.53;;
6547;SDS011;3307;52.416;16.862;2023-04-07T01:46:41;9.43;;;7.80;;
6547;SDS011;3307;52.416;16.862;2023-04-07T01:49:07;11.10;;;8.37;;
6547;SDS011;3307;52.416;16.862;2023-04-07T01:51:32;9.67;;;7.97;;
6547;SDS011;3307;52.416;16.862;2023-04-07T01:53:58;9.20;;;7.53;;
6547;SDS011;3307;52.416;16.862;2023-04-07T01:56:25;8.55;;;6.60;;
6547;SDS011;3307;52.416;16.862;2023-04-07T01:58:51;8.67;;;7.63;;
6547;SDS011;3307;52.416;16.862;2023-04-07T02:01:16;10.10;;;7.50;;
6547;SDS011;3307;52.416;16.862;2023-04-07T02:06:17;9.07;;;7.50;;
6547;SDS011;3307;52.416;16.862;2023-04-07T02:08:45;8.70;;;7.55;;
6547;SDS011;3307;52.416;16.862;2023-04-07T02:11:13;9.43;;;7.97;;
6547;SDS011;3307;52.416;16.862;2023-04-07T02:13:41;10.35;;;8.10;;
6547;SDS011;3307;52.416;16.862;2023-04-07T02:16:07;9.15;;;7.72;;
6547;SDS011;3307;52.416;16.862;2023-04-07T02:18:33;8.23;;;7.18;;
6547;SDS011;3307;52.416;16.862;2023-04-07T02:20:59;9.67;;;7.60;;
6547;SDS011;3307;52.416;16.862;2023-04-07T02:23:25;9.50;;;7.83;;
6547;SDS011;3307;52.416;16.862;2023-04-07T02:25:51;9.47;;;7.00;;
6547;SDS011;3307;52.416;16.862;2023-04-07T02:28:20;10.13;;;8.00;;
6547;SDS011;3307;52.416;16.862;2023-04-07T02:30:45;9.30;;;8.00;;
6547;SDS011;3307;52.416;16.862;2023-04-07T02:33:11;9.33;;;8.17;;
6547;SDS011;3307;52.416;16.862;2023-04-07T02:35:36;9.17;;;7.70;;
6547;SDS011;3307;52.416;16.862;2023-04-07T02:38:02;7.77;;;6.87;;
6547;SDS011;3307;52.416;16.862;2023-04-07T02:40:27;9.17;;;7.60;;
6547;SDS011;3307;52.416;16.862;2023-04-07T02:42:52;8.87;;;7.90;;
6547;SDS011;3307;52.416;16.862;2023-04-07T02:45:18;9.20;;;8.30;;
6547;SDS011;3307;52.416;16.862;2023-04-07T02:47:43;8.77;;;7.87;;
6547;SDS011;3307;52.416;16.862;2023-04-07T02:50:09;10.80;;;7.80;;
6547;SDS011;3307;52.416;16.862;2023-04-07T02:52:35;9.50;;;7.80;;
6547;SDS011;3307;52.416;16.862;2023-04-07T02:55:00;9.20;;;7.57;;
6547;SDS011;3307;52.416;16.862;2023-04-07T02:57:26;8.87;;;7.80;;
6547;SDS011;3307;52.416;16.862;2023-04-07T02:59:51;8.83;;;7.77;;
6547;SDS011;3307;52.416;16.862;2023-04-07T03:02:16;10.03;;;8.93;;
6547;SDS011;3307;52.416;16.862;2023-04-07T03:04:42;10.87;;;9.17;;
6547;SDS011;3307;52.416;16.862;2023-04-07T03:07:07;10.10;;;8.00;;
6547;SDS011;3307;52.416;16.862;2023-04-07T03:09:32;10.50;;;8.43;;
6547;SDS011;3307;52.416;16.862;2023-04-07T03:11:58;11.43;;;10.20;;
6547;SDS011;3307;52.416;16.862;2023-04-07T03:14:23;9.37;;;8.40;;
6547;SDS011;3307;52.416;16.862;2023-04-07T03:16:49;10.57;;;9.47;;
6547;SDS011;3307;52.416;16.862;2023-04-07T03:19:14;10.27;;;8.60;;
6547;SDS011;3307;52.416;16.862;2023-04-07T03:21:40;9.50;;;8.48;;
6547;SDS011;3307;52.416;16.862;2023-04-07T03:24:06;11.03;;;9.40;;
6547;SDS011;3307;52.416;16.862;2023-04-07T03:26:32;9.20;;;7.90;;
6547;SDS011;3307;52.416;16.862;2023-04-07T03:28:57;13.20;;;9.60;;
6547;SDS011;3307;52.416;16.862;2023-04-07T03:31:23;10.20;;;9.10;;
6547;SDS011;3307;52.416;16.862;2023-04-07T03:33:48;13.10;;;9.87;;
6547;SDS011;3307;52.416;16.862;2023-04-07T03:36:14;11.13;;;9.48;;
6547;SDS011;3307;52.416;16.862;2023-04-07T03:38:41;10.13;;;8.93;;
6547;SDS011;3307;52.416;16.862;2023-04-07T03:41:07;12.50;;;9.23;;
6547;SDS011;3307;52.416;16.862;2023-04-07T03:43:32;11.13;;;8.80;;
6547;SDS011;3307;52.416;16.862;2023-04-07T03:45:58;10.57;;;9.20;;
6547;SDS011;3307;52.416;16.862;2023-04-07T03:48:23;11.53;;;9.93;;
6547;SDS011;3307;52.416;16.862;2023-04-07T03:50:49;11.40;;;9.63;;
6547;SDS011;3307;52.416;16.862;2023-04-07T03:53:14;11.70;;;10.10;;
6547;SDS011;3307;52.416;16.862;2023-04-07T03:55:40;14.93;;;11.98;;
6547;SDS011;3307;52.416;16.862;2023-04-07T03:58:06;14.43;;;10.10;;
6547;SDS011;3307;52.416;16.862;2023-04-07T04:00:31;12.30;;;10.20;;
6547;SDS011;3307;52.416;16.862;2023-04-07T04:02:58;11.87;;;10.60;;
6547;SDS011;3307;52.416;16.862;2023-04-07T04:05:23;11.90;;;9.80;;
6547;SDS011;3307;52.416;16.862;2023-04-07T04:07:49;12.17;;;10.87;;
6547;SDS011;3307;52.416;16.862;2023-04-07T04:10:16;10.90;;;9.80;;
6547;SDS011;3307;52.416;16.862;2023-04-07T04:12:42;13.27;;;11.87;;
6547;SDS011;3307;52.416;16.862;2023-04-07T04:15:08;11.33;;;10.10;;
6547;SDS011;3307;52.416;16.862;2023-04-07T04:17:34;14.10;;;10.93;;
6547;SDS011;3307;52.416;16.862;2023-04-07T04:19:59;11.03;;;9.83;;
6547;SDS011;3307;52.416;16.862;2023-04-07T04:22:25;12.30;;;10.70;;
6547;SDS011;3307;52.416;16.862;2023-04-07T04:24:50;13.87;;;11.07;;
6547;SDS011;3307;52.416;16.862;2023-04-07T04:27:15;14.00;;;11.03;;
6547;SDS011;3307;52.416;16.862;2023-04-07T04:29:41;10.90;;;9.80;;
6547;SDS011;3307;52.416;16.862;2023-04-07T04:32:06;13.60;;;11.03;;
6547;SDS011;3307;52.416;16.862;2023-04-07T04:34:32;12.93;;;9.73;;
6547;SDS011;3307;52.416;16.862;2023-04-07T04:36:57;12.13;;;10.47;;
6547;SDS011;3307;52.416;16.862;2023-04-07T04:39:23;11.27;;;9.40;;
6547;SDS011;3307;52.416;16.862;2023-04-07T04:41:48;13.23;;;11.10;;
6547;SDS011;3307;52.416;16.862;2023-04-07T04:44:14;11.97;;;9.77;;
6547;SDS011;3307;52.416;16.862;2023-04-07T04:46:39;14.10;;;11.23;;
6547;SDS011;3307;52.416;16.862;2023-04-07T04:49:05;13.20;;;10.90;;
6547;SDS011;3307;52.416;16.862;2023-04-07T04:51:31;11.70;;;10.50;;
6547;SDS011;3307;52.416;16.862;2023-04-07T04:53:56;14.23;;;10.50;;
6547;SDS011;3307;52.416;16.862;2023-04-07T04:56:21;11.30;;;10.10;;
6547;SDS011;3307;52.416;16.862;2023-04-07T04:58:47;13.60;;;10.23;;
6547;SDS011;3307;52.416;16.862;2023-04-07T05:01:12;11.90;;;9.90;;
6547;SDS011;3307;52.416;16.862;2023-04-07T05:03:38;14.37;;;11.00;;
6547;SDS011;3307;52.416;16.862;2023-04-07T05:06:03;12.70;;;10.40;;
6547;SDS011;3307;52.416;16.862;2023-04-07T05:08:29;13.70;;;10.77;;
6547;SDS011;3307;52.416;16.862;2023-04-07T05:10:54;12.53;;;9.47;;
6547;SDS011;3307;52.416;16.862;2023-04-07T05:13:20;12.23;;;10.50;;
6547;SDS011;3307;52.416;16.862;2023-04-07T05:15:45;13.93;;;10.60;;
6547;SDS011;3307;52.416;16.862;2023-04-07T05:18:11;14.53;;;10.70;;
6547;SDS011;3307;52.416;16.862;2023-04-07T05:20:36;13.77;;;11.13;;
6547;SDS011;3307;52.416;16.862;2023-04-07T05:23:02;13.20;;;10.70;;
6547;SDS011;3307;52.416;16.862;2023-04-07T05:25:28;11.17;;;9.93;;
6547;SDS011;3307;52.416;16.862;2023-04-07T05:27:53;12.27;;;10.97;;
6547;SDS011;3307;52.416;16.862;2023-04-07T05:30:19;11.67;;;9.30;;
6547;SDS011;3307;52.416;16.862;2023-04-07T05:32:44;11.10;;;9.90;;
6547;SDS011;3307;52.416;16.862;2023-04-07T05:35:10;13.17;;;10.40;;
6547;SDS011;3307;52.416;16.862;2023-04-07T05:37:35;14.20;;;10.20;;
6547;SDS011;3307;52.416;16.862;2023-04-07T05:40:01;12.23;;;9.90;;
6547;SDS011;3307;52.416;16.862;2023-04-07T05:42:26;12.10;;;10.80;;
6547;SDS011;3307;52.416;16.862;2023-04-07T05:44:52;10.63;;;9.50;;
6547;SDS011;3307;52.416;16.862;2023-04-07T05:47:17;11.63;;;9.87;;
6547;SDS011;3307;52.416;16.862;2023-04-07T05:49:42;10.53;;;9.47;;
6547;SDS011;3307;52.416;16.862;2023-04-07T05:52:12;15.20;;;10.48;;
6547;SDS011;3307;52.416;16.862;2023-04-07T05:54:37;13.05;;;8.40;;
6547;SDS011;3307;52.416;16.862;2023-04-07T05:57:06;13.32;;;9.75;;
6547;SDS011;3307;52.416;16.862;2023-04-07T05:59:32;11.23;;;9.52;;
6547;SDS011;3307;52.416;16.862;2023-04-07T06:01:58;11.10;;;9.48;;
6547;SDS011;3307;52.416;16.862;2023-04-07T06:04:23;14.80;;;9.60;;
6547;SDS011;3307;52.416;16.862;2023-04-07T06:06:49;11.53;;;8.73;;
6547;SDS011;3307;52.416;16.862;2023-04-07T06:09:16;10.50;;;9.25;;
6547;SDS011;3307;52.416;16.862;2023-04-07T06:11:42;11.50;;;8.70;;
6547;SDS011;3307;52.416;16.862;2023-04-07T06:14:07;10.33;;;9.33;;
6547;SDS011;3307;52.416;16.862;2023-04-07T06:16:32;11.10;;;8.30;;
6547;SDS011;3307;52.416;16.862;2023-04-07T06:18:58;13.30;;;10.57;;
6547;SDS011;3307;52.416;16.862;2023-04-07T06:21:23;10.37;;;9.00;;
6547;SDS011;3307;52.416;16.862;2023-04-07T06:23:51;11.68;;;8.77;;
6547;SDS011;3307;52.416;16.862;2023-04-07T06:26:16;12.10;;;8.70;;
6547;SDS011;3307;52.416;16.862;2023-04-07T06:28:42;11.03;;;8.47;;
6547;SDS011;3307;52.416;16.862;2023-04-07T06:31:07;11.00;;;8.93;;
6547;SDS011;3307;52.416;16.862;2023-04-07T06:33:33;8.77;;;7.93;;
6547;SDS011;3307;52.416;16.862;2023-04-07T06:35:58;12.80;;;9.07;;
6547;SDS011;3307;52.416;16.862;2023-04-07T06:38:24;10.43;;;9.00;;
6547;SDS011;3307;52.416;16.862;2023-04-07T06:40:50;11.83;;;9.63;;
6547;SDS011;3307;52.416;16.862;2023-04-07T06:43:15;12.98;;;9.70;;
6547;SDS011;3307;52.416;16.862;2023-04-07T06:45:41;10.60;;;9.30;;
6547;SDS011;3307;52.416;16.862;2023-04-07T06:48:06;10.60;;;9.20;;
6547;SDS011;3307;52.416;16.862;2023-04-07T06:50:32;11.70;;;10.13;;
6547;SDS011;3307;52.416;16.862;2023-04-07T06:52:57;15.27;;;10.57;;
6547;SDS011;3307;52.416;16.862;2023-04-07T06:55:22;12.73;;;10.17;;
6547;SDS011;3307;52.416;16.862;2023-04-07T06:57:48;12.40;;;9.10;;
6547;SDS011;3307;52.416;16.862;2023-04-07T07:00:16;14.27;;;10.20;;
6547;SDS011;3307;52.416;16.862;2023-04-07T07:02:42;10.83;;;8.80;;
6547;SDS011;3307;52.416;16.862;2023-04-07T07:05:07;12.63;;;10.03;;
6547;SDS011;3307;52.416;16.862;2023-04-07T07:07:33;12.13;;;10.13;;
6547;SDS011;3307;52.416;16.862;2023-04-07T07:09:58;12.30;;;9.37;;
6547;SDS011;3307;52.416;16.862;2023-04-07T07:12:23;12.43;;;10.50;;
6547;SDS011;3307;52.416;16.862;2023-04-07T07:14:49;12.03;;;9.80;;
6547;SDS011;3307;52.416;16.862;2023-04-07T07:17:14;12.73;;;10.27;;
6547;SDS011;3307;52.416;16.862;2023-04-07T07:19:40;11.40;;;10.30;;
6547;SDS011;3307;52.416;16.862;2023-04-07T07:22:05;10.47;;;9.37;;
6547;SDS011;3307;52.416;16.862;2023-04-07T07:24:31;15.73;;;9.90;;
6547;SDS011;3307;52.416;16.862;2023-04-07T07:26:58;11.13;;;9.73;;
6547;SDS011;3307;52.416;16.862;2023-04-07T07:29:24;10.93;;;9.60;;
6547;SDS011;3307;52.416;16.862;2023-04-07T07:31:49;14.60;;;10.20;;
6547;SDS011;3307;52.416;16.862;2023-04-07T07:34:15;14.00;;;11.30;;
6547;SDS011;3307;52.416;16.862;2023-04-07T07:36:40;12.57;;;9.70;;
6547;SDS011;3307;52.416;16.862;2023-04-07T07:39:06;12.67;;;10.60;;
6547;SDS011;3307;52.416;16.862;2023-04-07T07:41:31;16.50;;;10.67;;
6547;SDS011;3307;52.416;16.862;2023-04-07T07:43:57;15.50;;;10.57;;
6547;SDS011;3307;52.416;16.862;2023-04-07T07:46:22;12.47;;;10.47;;
6547;SDS011;3307;52.416;16.862;2023-04-07T07:48:50;13.60;;;10.25;;
6547;SDS011;3307;52.416;16.862;2023-04-07T07:51:15;13.87;;;10.67;;
6547;SDS011;3307;52.416;16.862;2023-04-07T07:53:42;13.77;;;10.75;;
6547;SDS011;3307;52.416;16.862;2023-04-07T07:56:08;13.40;;;9.77;;
6547;SDS011;3307;52.416;16.862;2023-04-07T07:58:34;12.90;;;11.30;;
6547;SDS011;3307;52.416;16.862;2023-04-07T08:00:59;14.50;;;11.03;;
6547;SDS011;3307;52.416;16.862;2023-04-07T08:03:25;17.60;;;11.60;;
6547;SDS011;3307;52.416;16.862;2023-04-07T08:05:50;19.63;;;12.37;;
6547;SDS011;3307;52.416;16.862;2023-04-07T08:08:16;15.80;;;10.80;;
6547;SDS011;3307;52.416;16.862;2023-04-07T08:10:41;15.00;;;11.03;;
6547;SDS011;3307;52.416;16.862;2023-04-07T08:13:07;15.17;;;11.30;;
6547;SDS011;3307;52.416;16.862;2023-04-07T08:15:32;13.90;;;10.70;;
6547;SDS011;3307;52.416;16.862;2023-04-07T08:17:57;13.13;;;11.13;;
6547;SDS011;3307;52.416;16.862;2023-04-07T08:20:24;13.15;;;10.15;;
6547;SDS011;3307;52.416;16.862;2023-04-07T08:22:50;14.35;;;10.55;;
6547;SDS011;3307;52.416;16.862;2023-04-07T08:25:16;14.83;;;11.40;;
6547;SDS011;3307;52.416;16.862;2023-04-07T08:27:42;19.13;;;12.10;;
6547;SDS011;3307;52.416;16.862;2023-04-07T08:30:08;19.60;;;12.48;;
6547;SDS011;3307;52.416;16.862;2023-04-07T08:32:37;18.03;;;12.70;;
6547;SDS011;3307;52.416;16.862;2023-04-07T08:35:04;18.13;;;13.38;;
6547;SDS011;3307;52.416;16.862;2023-04-07T08:37:30;17.67;;;12.87;;
6547;SDS011;3307;52.416;16.862;2023-04-07T08:39:56;16.55;;;12.40;;
6547;SDS011;3307;52.416;16.862;2023-04-07T08:42:23;16.20;;;12.77;;
6547;SDS011;3307;52.416;16.862;2023-04-07T08:44:51;15.10;;;12.23;;
6547;SDS011;3307;52.416;16.862;2023-04-07T08:47:18;15.52;;;12.25;;
6547;SDS011;3307;52.416;16.862;2023-04-07T08:49:44;16.08;;;13.05;;
6547;SDS011;3307;52.416;16.862;2023-04-07T08:52:12;14.48;;;11.80;;
6547;SDS011;3307;52.416;16.862;2023-04-07T08:54:38;15.95;;;12.70;;
6547;SDS011;3307;52.416;16.862;2023-04-07T08:57:04;18.30;;;12.83;;
6547;SDS011;3307;52.416;16.862;2023-04-07T08:59:30;19.70;;;12.10;;
6547;SDS011;3307;52.416;16.862;2023-04-07T09:01:57;18.27;;;12.38;;
6547;SDS011;3307;52.416;16.862;2023-04-07T09:04:23;18.95;;;13.48;;
6547;SDS011;3307;52.416;16.862;2023-04-07T09:06:49;16.90;;;12.53;;
6547;SDS011;3307;52.416;16.862;2023-04-07T09:09:14;17.40;;;13.17;;
6547;SDS011;3307;52.416;16.862;2023-04-07T09:11:40;15.53;;;11.07;;
6547;SDS011;3307;52.416;16.862;2023-04-07T09:14:05;16.83;;;12.70;;
6547;SDS011;3307;52.416;16.862;2023-04-07T09:16:31;18.60;;;12.80;;
6547;SDS011;3307;52.416;16.862;2023-04-07T09:18:57;15.63;;;11.70;;
6547;SDS011;3307;52.416;16.862;2023-04-07T09:21:23;16.30;;;12.48;;
6547;SDS011;3307;52.416;16.862;2023-04-07T09:23:48;15.87;;;12.50;;
6547;SDS011;3307;52.416;16.862;2023-04-07T09:28:58;12.75;;;11.43;;
6547;SDS011;3307;52.416;16.862;2023-04-07T09:34:24;16.02;;;12.60;;
6547;SDS011;3307;52.416;16.862;2023-04-07T09:36:57;13.50;;;10.73;;
6547;SDS011;3307;52.416;16.862;2023-04-07T09:39:23;12.70;;;9.83;;
6547;SDS011;3307;52.416;16.862;2023-04-07T09:41:48;15.20;;;10.98;;
6547;SDS011;3307;52.416;16.862;2023-04-07T09:44:15;14.38;;;10.60;;
6547;SDS011;3307;52.416;16.862;2023-04-07T09:49:19;14.23;;;12.68;;
6547;SDS011;3307;52.416;16.862;2023-04-07T09:51:55;15.60;;;11.55;;
6547;SDS011;3307;52.416;16.862;2023-04-07T09:54:34;13.20;;;8.95;;
6547;SDS011;3307;52.416;16.862;2023-04-07T09:57:02;10.65;;;9.40;;
6547;SDS011;3307;52.416;16.862;2023-04-07T09:59:30;14.02;;;10.10;;
6547;SDS011;3307;52.416;16.862;2023-04-07T10:01:56;11.30;;;9.55;;
6547;SDS011;3307;52.416;16.862;2023-04-07T10:04:23;12.43;;;9.80;;
6547;SDS011;3307;52.416;16.862;2023-04-07T10:06:49;12.73;;;10.13;;
6547;SDS011;3307;52.416;16.862;2023-04-07T10:09:14;14.03;;;10.93;;
6547;SDS011;3307;52.416;16.862;2023-04-07T10:11:41;14.65;;;11.23;;
6547;SDS011;3307;52.416;16.862;2023-04-07T10:14:08;12.50;;;10.07;;
6547;SDS011;3307;52.416;16.862;2023-04-07T10:16:34;14.27;;;11.48;;
6547;SDS011;3307;52.416;16.862;2023-04-07T10:19:01;11.63;;;10.43;;
6547;SDS011;3307;52.416;16.862;2023-04-07T10:21:26;13.00;;;10.63;;
6547;SDS011;3307;52.416;16.862;2023-04-07T10:23:55;12.67;;;11.00;;
6547;SDS011;3307;52.416;16.862;2023-04-07T10:26:25;12.05;;;10.85;;
6547;SDS011;3307;52.416;16.862;2023-04-07T10:28:54;12.20;;;10.20;;
6547;SDS011;3307;52.416;16.862;2023-04-07T10:31:23;13.02;;;10.82;;
6547;SDS011;3307;52.416;16.862;2023-04-07T10:33:50;14.50;;;10.60;;
6547;SDS011;3307;52.416;16.862;2023-04-07T10:36:19;11.18;;;9.43;;
6547;SDS011;3307;52.416;16.862;2023-04-07T10:41:33;10.13;;;9.00;;
6547;SDS011;3307;52.416;16.862;2023-04-07T10:44:00;11.57;;;10.40;;
6547;SDS011;3307;52.416;16.862;2023-04-07T10:49:17;11.32;;;9.50;;
6547;SDS011;3307;52.416;16.862;2023-04-07T10:51:42;10.10;;;8.70;;
6547;SDS011;3307;52.416;16.862;2023-04-07T10:54:18;8.70;;;7.80;;
6547;SDS011;3307;52.416;16.862;2023-04-07T10:59:27;13.43;;;10.07;;
6547;SDS011;3307;52.416;16.862;2023-04-07T11:04:37;9.80;;;8.55;;
6547;SDS011;3307;52.416;16.862;2023-04-07T11:07:03;13.88;;;10.93;;
6547;SDS011;3307;52.416;16.862;2023-04-07T11:09:28;14.00;;;11.70;;
6547;SDS011;3307;52.416;16.862;2023-04-07T11:11:54;11.50;;;9.90;;
6547;SDS011;3307;52.416;16.862;2023-04-07T11:14:26;12.60;;;9.60;;
6547;SDS011;3307;52.416;16.862;2023-04-07T11:16:52;9.00;;;8.18;;
6547;SDS011;3307;52.416;16.862;2023-04-07T11:19:18;9.80;;;8.63;;
6547;SDS011;3307;52.416;16.862;2023-04-07T11:21:45;10.27;;;8.75;;
6547;SDS011;3307;52.416;16.862;2023-04-07T11:24:30;10.90;;;9.37;;
6547;SDS011;3307;52.416;16.862;2023-04-07T11:26:56;11.55;;;10.32;;
6547;SDS011;3307;52.416;16.862;2023-04-07T11:29:31;10.40;;;9.50;;
6547;SDS011;3307;52.416;16.862;2023-04-07T11:31:58;12.40;;;8.93;;
6547;SDS011;3307;52.416;16.862;2023-04-07T11:34:30;10.07;;;8.05;;
6547;SDS011;3307;52.416;16.862;2023-04-07T11:36:57;10.20;;;8.75;;
6547;SDS011;3307;52.416;16.862;2023-04-07T11:39:24;11.70;;;10.02;;
6547;SDS011;3307;52.416;16.862;2023-04-07T11:41:55;11.73;;;10.45;;
6547;SDS011;3307;52.416;16.862;2023-04-07T11:44:21;12.03;;;10.63;;
6547;SDS011;3307;52.416;16.862;2023-04-07T11:46:56;10.30;;;9.20;;
6547;SDS011;3307;52.416;16.862;2023-04-07T11:49:23;11.93;;;10.30;;
6547;SDS011;3307;52.416;16.862;2023-04-07T11:51:59;10.82;;;9.73;;
6547;SDS011;3307;52.416;16.862;2023-04-07T11:57:06;12.93;;;11.25;;
6547;SDS011;3307;52.416;16.862;2023-04-07T11:59:34;14.65;;;12.32;;
6547;SDS011;3307;52.416;16.862;2023-04-07T12:01:59;13.07;;;10.87;;
6547;SDS011;3307;52.416;16.862;2023-04-07T12:04:25;12.60;;;11.30;;
6547;SDS011;3307;52.416;16.862;2023-04-07T12:06:51;12.53;;;11.10;;
6547;SDS011;3307;52.416;16.862;2023-04-07T12:09:29;16.27;;;12.40;;
6547;SDS011;3307;52.416;16.862;2023-04-07T12:11:58;15.90;;;12.93;;
6547;SDS011;3307;52.416;16.862;2023-04-07T12:14:24;16.77;;;12.80;;
6547;SDS011;3307;52.416;16.862;2023-04-07T12:16:50;15.30;;;12.07;;
6547;SDS011;3307;52.416;16.862;2023-04-07T12:19:16;15.70;;;11.88;;
6547;SDS011;3307;52.416;16.862;2023-04-07T12:21:42;15.23;;;11.67;;
6547;SDS011;3307;52.416;16.862;2023-04-07T12:24:07;16.07;;;13.63;;
6547;SDS011;3307;52.416;16.862;2023-04-07T12:26:33;13.07;;;11.53;;
6547;SDS011;3307;52.416;16.862;2023-04-07T12:28:58;15.23;;;12.90;;
6547;SDS011;3307;52.416;16.862;2023-04-07T12:31:29;15.85;;;13.32;;
6547;SDS011;3307;52.416;16.862;2023-04-07T12:33:56;18.42;;;14.05;;
6547;SDS011;3307;52.416;16.862;2023-04-07T12:36:22;18.02;;;13.80;;
6547;SDS011;3307;52.416;16.862;2023-04-07T12:38:48;12.33;;;11.07;;
6547;SDS011;3307;52.416;16.862;2023-04-07T12:41:13;18.40;;;14.83;;
6547;SDS011;3307;52.416;16.862;2023-04-07T12:43:39;19.67;;;14.40;;
6547;SDS011;3307;52.416;16.862;2023-04-07T12:46:05;13.20;;;11.80;;
6547;SDS011;3307;52.416;16.862;2023-04-07T12:48:30;17.03;;;14.80;;
6547;SDS011;3307;52.416;16.862;2023-04-07T12:50:56;17.23;;;13.50;;
6547;SDS011;3307;52.416;16.862;2023-04-07T12:53:22;18.50;;;14.40;;
6547;SDS011;3307;52.416;16.862;2023-04-07T12:55:48;19.00;;;15.47;;
6547;SDS011;3307;52.416;16.862;2023-04-07T12:58:13;19.50;;;14.33;;
6547;SDS011;3307;52.416;16.862;2023-04-07T13:00:39;18.90;;;14.77;;
6547;SDS011;3307;52.416;16.862;2023-04-07T13:03:05;16.70;;;14.40;;
6547;SDS011;3307;52.416;16.862;2023-04-07T13:05:31;20.07;;;16.73;;
6547;SDS011;3307;52.416;16.862;2023-04-07T13:07:56;23.40;;;18.90;;
6547;SDS011;3307;52.416;16.862;2023-04-07T13:10:22;20.20;;;15.50;;
6547;SDS011;3307;52.416;16.862;2023-04-07T13:12:47;19.83;;;17.80;;
6547;SDS011;3307;52.416;16.862;2023-04-07T13:15:13;23.77;;;15.50;;
6547;SDS011;3307;52.416;16.862;2023-04-07T13:17:38;19.93;;;15.63;;
6547;SDS011;3307;52.416;16.862;2023-04-07T13:20:04;18.40;;;15.23;;
6547;SDS011;3307;52.416;16.862;2023-04-07T13:22:31;18.80;;;15.27;;
6547;SDS011;3307;52.416;16.862;2023-04-07T13:24:56;20.57;;;16.17;;
6547;SDS011;3307;52.416;16.862;2023-04-07T13:27:22;16.43;;;14.27;;
6547;SDS011;3307;52.416;16.862;2023-04-07T13:29:47;21.30;;;15.30;;
6547;SDS011;3307;52.416;16.862;2023-04-07T13:32:14;19.30;;;15.33;;
6547;SDS011;3307;52.416;16.862;2023-04-07T13:34:40;21.30;;;13.75;;
6547;SDS011;3307;52.416;16.862;2023-04-07T13:37:05;17.20;;;15.43;;
6547;SDS011;3307;52.416;16.862;2023-04-07T13:39:31;21.17;;;16.80;;
6547;SDS011;3307;52.416;16.862;2023-04-07T13:41:57;19.33;;;15.27;;
6547;SDS011;3307;52.416;16.862;2023-04-07T13:44:23;23.30;;;16.57;;
6547;SDS011;3307;52.416;16.862;2023-04-07T13:46:51;20.33;;;15.73;;
6547;SDS011;3307;52.416;16.862;2023-04-07T13:49:17;18.10;;;15.00;;
6547;SDS011;3307;52.416;16.862;2023-04-07T13:51:43;20.93;;;14.83;;
6547;SDS011;3307;52.416;16.862;2023-04-07T13:54:08;22.43;;;16.00;;
6547;SDS011;3307;52.416;16.862;2023-04-07T13:56:34;24.87;;;17.47;;
6547;SDS011;3307;52.416;16.862;2023-04-07T13:59:02;24.73;;;16.88;;
6547;SDS011;3307;52.416;16.862;2023-04-07T14:01:29;25.27;;;19.48;;
6547;SDS011;3307;52.416;16.862;2023-04-07T14:03:54;24.73;;;17.93;;
6547;SDS011;3307;52.416;16.862;2023-04-07T14:06:19;28.37;;;20.67;;
6547;SDS011;3307;52.416;16.862;2023-04-07T14:08:48;22.98;;;18.40;;
6547;SDS011;3307;52.416;16.862;2023-04-07T14:11:17;23.75;;;18.60;;
6547;SDS011;3307;52.416;16.862;2023-04-07T14:13:43;24.13;;;19.48;;
6547;SDS011;3307;52.416;16.862;2023-04-07T14:16:09;22.95;;;19.25;;
6547;SDS011;3307;52.416;16.862;2023-04-07T14:18:35;25.87;;;18.50;;
6547;SDS011;3307;52.416;16.862;2023-04-07T14:21:01;23.48;;;18.58;;
6547;SDS011;3307;52.416;16.862;2023-04-07T14:23:27;25.95;;;19.23;;
6547;SDS011;3307;52.416;16.862;2023-04-07T14:25:53;33.83;;;23.97;;
6547;SDS011;3307;52.416;16.862;2023-04-07T14:28:18;27.70;;;19.80;;
6547;SDS011;3307;52.416;16.862;2023-04-07T14:30:43;29.00;;;22.50;;
6547;SDS011;3307;52.416;16.862;2023-04-07T14:33:09;31.03;;;21.30;;
6547;SDS011;3307;52.416;16.862;2023-04-07T14:35:35;28.30;;;21.77;;
6547;SDS011;3307;52.416;16.862;2023-04-07T14:38:01;27.85;;;21.25;;
6547;SDS011;3307;52.416;16.862;2023-04-07T14:40:27;29.40;;;20.17;;
6547;SDS011;3307;52.416;16.862;2023-04-07T14:42:52;31.00;;;23.33;;
6547;SDS011;3307;52.416;16.862;2023-04-07T14:45:18;33.87;;;21.67;;
6547;SDS011;3307;52.416;16.862;2023-04-07T14:47:43;31.17;;;22.27;;
6547;SDS011;3307;52.416;16.862;2023-04-07T14:50:09;31.00;;;23.40;;
6547;SDS011;3307;52.416;16.862;2023-04-07T14:52:35;27.50;;;20.87;;
6547;SDS011;3307;52.416;16.862;2023-04-07T14:55:00;31.57;;;22.80;;
6547;SDS011;3307;52.416;16.862;2023-04-07T14:57:26;32.30;;;23.00;;
6547;SDS011;3307;52.416;16.862;2023-04-07T14:59:51;33.50;;;24.70;;
6547;SDS011;3307;52.416;16.862;2023-04-07T15:02:17;33.53;;;24.07;;
6547;SDS011;3307;52.416;16.862;2023-04-07T15:04:42;34.83;;;24.13;;
6547;SDS011;3307;52.416;16.862;2023-04-07T15:07:07;33.63;;;24.23;;
6547;SDS011;3307;52.416;16.862;2023-04-07T15:09:33;36.17;;;28.60;;